CheckWX is a tool to help pilots better visualize weather data.  It is not intended as a substitute for an official pre-flight weather briefing.

02:12:18 UTC

KLAR TAF
Laramie Regional Airport
Laramie, Wyoming, USA
KLAR 180202Z 1802/1824 10008KT 2SM -SN OVC025 TEMPO 1802/1803 3/4SM -SN FM180300 11007KT P6SM VCSH OVC050 FM181500 14010KT 3SM BR OVC025

Feb-18@
02:00 UTC

Feb-18 @ 02:00 UTC

Feb-18@
03:00 UTC

Feb-18 @ 03:00 UTC

KLAR 180202Z 1802/1824 10008KT 2SM -SN OVC025
Wind
  • 100° at 8 KTS
Visibility
2 SM
Conditions
Light Snow
Cloud Levels
  • Overcast at 2,500' AGL

Feb-18@
02:00 UTC

Feb-18 @ 02:00 UTC

Feb-18@
03:00 UTC

Feb-18 @ 03:00 UTC

TEMPO 1802/1803 3/4SM -SN

Temporary

TemporaryChanges expected for less than half the time period

Visibility
3/4 SM
Conditions
Light Snow

Feb-18@
03:00 UTC

Feb-18 @ 03:00 UTC

Feb-18@
15:00 UTC

Feb-18 @ 15:00 UTC

FM180300 11007KT P6SM VCSH OVC050

From

FromStandard forecast or significant change

Wind
  • 110° at 7 KTS
Visibility
Greater than 6 SM
Cloud Levels
  • Overcast at 5,000' AGL

Feb-18@
15:00 UTC

Feb-18 @ 15:00 UTC

Feb-19@
00:00 UTC

Feb-19 @ 00:00 UTC

FM181500 14010KT 3SM BR OVC025

From

FromStandard forecast or significant change

Wind
  • 140° at 10 KTS
Visibility
3 SM
Conditions
Mist
Cloud Levels
  • Overcast at 2,500' AGL